sensor_id;sensor_type;location;lat;lon;timestamp;P1;durP1;ratioP1;P2;durP2;ratioP2
22937;SDS011;11634;42.734;23.298;2022-10-16T00:01:42;17.70;;;11.40;;
22937;SDS011;11634;42.734;23.298;2022-10-16T00:04:08;12.00;;;10.13;;
22937;SDS011;11634;42.734;23.298;2022-10-16T00:06:34;14.82;;;11.43;;
22937;SDS011;11634;42.734;23.298;2022-10-16T00:08:59;11.82;;;10.35;;
22937;SDS011;11634;42.734;23.298;2022-10-16T00:11:27;13.27;;;10.15;;
22937;SDS011;11634;42.734;23.298;2022-10-16T00:13:56;15.80;;;11.20;;
22937;SDS011;11634;42.734;23.298;2022-10-16T00:16:24;14.05;;;11.40;;
22937;SDS011;11634;42.734;23.298;2022-10-16T00:18:50;14.88;;;11.18;;
22937;SDS011;11634;42.734;23.298;2022-10-16T00:21:19;16.67;;;10.95;;
22937;SDS011;11634;42.734;23.298;2022-10-16T00:23:46;14.95;;;9.88;;
22937;SDS011;11634;42.734;23.298;2022-10-16T00:26:16;12.48;;;8.63;;
22937;SDS011;11634;42.734;23.298;2022-10-16T00:28:44;15.25;;;10.63;;
22937;SDS011;11634;42.734;23.298;2022-10-16T00:31:14;15.30;;;10.35;;
22937;SDS011;11634;42.734;23.298;2022-10-16T00:33:41;13.85;;;10.73;;
22937;SDS011;11634;42.734;23.298;2022-10-16T00:36:07;14.30;;;9.80;;
22937;SDS011;11634;42.734;23.298;2022-10-16T00:38:36;15.45;;;10.45;;
22937;SDS011;11634;42.734;23.298;2022-10-16T00:41:03;13.82;;;10.55;;
22937;SDS011;11634;42.734;23.298;2022-10-16T00:46:03;12.75;;;10.27;;
22937;SDS011;11634;42.734;23.298;2022-10-16T00:48:31;16.00;;;11.40;;
22937;SDS011;11634;42.734;23.298;2022-10-16T00:50:57;11.30;;;9.98;;
22937;SDS011;11634;42.734;23.298;2022-10-16T00:53:24;15.00;;;9.82;;
22937;SDS011;11634;42.734;23.298;2022-10-16T00:55:50;16.23;;;10.00;;
22937;SDS011;11634;42.734;23.298;2022-10-16T00:58:16;14.40;;;10.38;;
22937;SDS011;11634;42.734;23.298;2022-10-16T01:00:42;15.82;;;11.35;;
22937;SDS011;11634;42.734;23.298;2022-10-16T01:03:27;17.13;;;11.35;;
22937;SDS011;11634;42.734;23.298;2022-10-16T01:06:30;17.88;;;11.40;;
22937;SDS011;11634;42.734;23.298;2022-10-16T01:09:06;15.07;;;11.40;;
22937;SDS011;11634;42.734;23.298;2022-10-16T01:11:52;18.38;;;12.13;;
22937;SDS011;11634;42.734;23.298;2022-10-16T01:15:05;16.33;;;12.35;;
22937;SDS011;11634;42.734;23.298;2022-10-16T01:17:15;15.65;;;11.35;;
22937;SDS011;11634;42.734;23.298;2022-10-16T01:20:07;16.63;;;11.27;;
22937;SDS011;11634;42.734;23.298;2022-10-16T01:25:29;15.95;;;11.00;;
22937;SDS011;11634;42.734;23.298;2022-10-16T01:28:05;18.58;;;11.63;;
22937;SDS011;11634;42.734;23.298;2022-10-16T01:30:35;16.40;;;11.60;;
22937;SDS011;11634;42.734;23.298;2022-10-16T01:33:03;15.88;;;12.35;;
22937;SDS011;11634;42.734;23.298;2022-10-16T01:35:48;16.88;;;11.57;;
22937;SDS011;11634;42.734;23.298;2022-10-16T01:41:06;15.52;;;12.15;;
22937;SDS011;11634;42.734;23.298;2022-10-16T01:43:38;17.85;;;11.85;;
22937;SDS011;11634;42.734;23.298;2022-10-16T01:46:10;13.23;;;10.98;;
22937;SDS011;11634;42.734;23.298;2022-10-16T01:48:39;11.77;;;10.55;;
22937;SDS011;11634;42.734;23.298;2022-10-16T01:51:06;14.88;;;10.85;;
22937;SDS011;11634;42.734;23.298;2022-10-16T01:53:37;16.45;;;12.65;;
22937;SDS011;11634;42.734;23.298;2022-10-16T01:56:05;13.18;;;11.05;;
22937;SDS011;11634;42.734;23.298;2022-10-16T01:58:35;9.98;;;8.73;;
22937;SDS011;11634;42.734;23.298;2022-10-16T02:01:05;15.00;;;10.75;;
22937;SDS011;11634;42.734;23.298;2022-10-16T02:03:34;12.35;;;9.23;;
22937;SDS011;11634;42.734;23.298;2022-10-16T02:06:03;13.18;;;9.55;;
22937;SDS011;11634;42.734;23.298;2022-10-16T02:08:28;12.15;;;10.45;;
22937;SDS011;11634;42.734;23.298;2022-10-16T02:10:56;15.43;;;10.27;;
22937;SDS011;11634;42.734;23.298;2022-10-16T02:16:04;11.75;;;8.80;;
22937;SDS011;11634;42.734;23.298;2022-10-16T02:18:30;11.13;;;8.27;;
22937;SDS011;11634;42.734;23.298;2022-10-16T02:24:18;10.73;;;8.15;;
22937;SDS011;11634;42.734;23.298;2022-10-16T02:26:23;10.60;;;7.88;;
22937;SDS011;11634;42.734;23.298;2022-10-16T02:29:02;12.93;;;9.77;;
22937;SDS011;11634;42.734;23.298;2022-10-16T02:31:32;12.02;;;8.80;;
22937;SDS011;11634;42.734;23.298;2022-10-16T02:34:00;11.35;;;9.77;;
22937;SDS011;11634;42.734;23.298;2022-10-16T02:36:30;11.40;;;9.50;;
22937;SDS011;11634;42.734;23.298;2022-10-16T02:38:57;11.23;;;8.40;;
22937;SDS011;11634;42.734;23.298;2022-10-16T02:41:25;15.90;;;10.93;;
22937;SDS011;11634;42.734;23.298;2022-10-16T02:43:51;12.00;;;9.80;;
22937;SDS011;11634;42.734;23.298;2022-10-16T02:46:16;10.85;;;8.75;;
22937;SDS011;11634;42.734;23.298;2022-10-16T02:48:43;12.48;;;9.63;;
22937;SDS011;11634;42.734;23.298;2022-10-16T02:51:09;13.23;;;9.63;;
22937;SDS011;11634;42.734;23.298;2022-10-16T02:53:34;15.10;;;10.77;;
22937;SDS011;11634;42.734;23.298;2022-10-16T02:56:00;15.65;;;11.68;;
22937;SDS011;11634;42.734;23.298;2022-10-16T02:58:25;17.80;;;11.38;;
22937;SDS011;11634;42.734;23.298;2022-10-16T03:00:51;20.23;;;11.52;;
22937;SDS011;11634;42.734;23.298;2022-10-16T03:03:16;18.63;;;11.90;;
22937;SDS011;11634;42.734;23.298;2022-10-16T03:05:42;16.38;;;11.52;;
22937;SDS011;11634;42.734;23.298;2022-10-16T03:08:11;14.75;;;10.68;;
22937;SDS011;11634;42.734;23.298;2022-10-16T03:10:37;19.02;;;11.55;;
22937;SDS011;11634;42.734;23.298;2022-10-16T03:13:03;15.57;;;11.05;;
22937;SDS011;11634;42.734;23.298;2022-10-16T03:15:28;15.85;;;11.52;;
22937;SDS011;11634;42.734;23.298;2022-10-16T03:17:54;14.98;;;10.63;;
22937;SDS011;11634;42.734;23.298;2022-10-16T03:20:20;17.25;;;11.40;;
22937;SDS011;11634;42.734;23.298;2022-10-16T03:22:46;15.82;;;11.60;;
22937;SDS011;11634;42.734;23.298;2022-10-16T03:25:11;14.48;;;11.40;;
22937;SDS011;11634;42.734;23.298;2022-10-16T03:27:36;15.68;;;10.90;;
22937;SDS011;11634;42.734;23.298;2022-10-16T03:30:02;13.68;;;10.38;;
22937;SDS011;11634;42.734;23.298;2022-10-16T03:32:28;15.13;;;10.35;;
22937;SDS011;11634;42.734;23.298;2022-10-16T03:34:54;14.43;;;10.20;;
22937;SDS011;11634;42.734;23.298;2022-10-16T03:37:21;14.27;;;10.10;;
22937;SDS011;11634;42.734;23.298;2022-10-16T03:39:47;13.05;;;10.45;;
22937;SDS011;11634;42.734;23.298;2022-10-16T03:42:12;15.52;;;10.82;;
22937;SDS011;11634;42.734;23.298;2022-10-16T03:44:38;15.18;;;10.75;;
22937;SDS011;11634;42.734;23.298;2022-10-16T03:47:03;15.00;;;11.73;;
22937;SDS011;11634;42.734;23.298;2022-10-16T03:49:29;15.68;;;10.88;;
22937;SDS011;11634;42.734;23.298;2022-10-16T03:51:55;15.73;;;11.90;;
22937;SDS011;11634;42.734;23.298;2022-10-16T03:54:21;19.27;;;12.32;;
22937;SDS011;11634;42.734;23.298;2022-10-16T03:56:47;16.83;;;12.40;;
22937;SDS011;11634;42.734;23.298;2022-10-16T03:59:16;15.90;;;12.30;;
22937;SDS011;11634;42.734;23.298;2022-10-16T04:01:43;15.77;;;12.40;;
22937;SDS011;11634;42.734;23.298;2022-10-16T04:04:09;15.80;;;11.13;;
22937;SDS011;11634;42.734;23.298;2022-10-16T04:06:34;14.73;;;10.75;;
22937;SDS011;11634;42.734;23.298;2022-10-16T04:09:00;13.45;;;10.85;;
22937;SDS011;11634;42.734;23.298;2022-10-16T04:11:25;15.20;;;11.32;;
22937;SDS011;11634;42.734;23.298;2022-10-16T04:13:51;16.45;;;10.60;;
22937;SDS011;11634;42.734;23.298;2022-10-16T04:16:17;12.88;;;10.20;;
22937;SDS011;11634;42.734;23.298;2022-10-16T04:18:42;15.70;;;10.25;;
22937;SDS011;11634;42.734;23.298;2022-10-16T04:21:08;14.35;;;10.98;;
22937;SDS011;11634;42.734;23.298;2022-10-16T04:23:33;15.68;;;11.07;;
22937;SDS011;11634;42.734;23.298;2022-10-16T04:25:59;15.35;;;11.27;;
22937;SDS011;11634;42.734;23.298;2022-10-16T04:28:28;18.50;;;12.15;;
22937;SDS011;11634;42.734;23.298;2022-10-16T04:30:54;13.32;;;10.52;;
22937;SDS011;11634;42.734;23.298;2022-10-16T04:33:19;15.50;;;10.93;;
22937;SDS011;11634;42.734;23.298;2022-10-16T04:35:45;18.33;;;11.18;;
22937;SDS011;11634;42.734;23.298;2022-10-16T04:38:11;13.88;;;11.07;;
22937;SDS011;11634;42.734;23.298;2022-10-16T04:40:36;15.40;;;11.65;;
22937;SDS011;11634;42.734;23.298;2022-10-16T04:43:03;14.23;;;11.23;;
22937;SDS011;11634;42.734;23.298;2022-10-16T04:45:29;11.50;;;10.20;;
22937;SDS011;11634;42.734;23.298;2022-10-16T04:47:58;19.02;;;10.57;;
22937;SDS011;11634;42.734;23.298;2022-10-16T04:50:26;17.50;;;11.90;;
22937;SDS011;11634;42.734;23.298;2022-10-16T04:53:04;24.27;;;21.80;;
22937;SDS011;11634;42.734;23.298;2022-10-16T04:55:30;16.50;;;12.90;;
22937;SDS011;11634;42.734;23.298;2022-10-16T04:57:55;17.38;;;11.68;;
22937;SDS011;11634;42.734;23.298;2022-10-16T05:00:23;19.00;;;16.73;;
22937;SDS011;11634;42.734;23.298;2022-10-16T05:02:49;15.45;;;12.27;;
22937;SDS011;11634;42.734;23.298;2022-10-16T05:05:16;15.43;;;11.65;;
22937;SDS011;11634;42.734;23.298;2022-10-16T05:07:44;14.75;;;11.50;;
22937;SDS011;11634;42.734;23.298;2022-10-16T05:10:10;14.88;;;11.43;;
22937;SDS011;11634;42.734;23.298;2022-10-16T05:12:36;17.60;;;11.50;;
22937;SDS011;11634;42.734;23.298;2022-10-16T05:15:01;15.73;;;12.38;;
22937;SDS011;11634;42.734;23.298;2022-10-16T05:17:27;15.27;;;11.45;;
22937;SDS011;11634;42.734;23.298;2022-10-16T05:19:53;18.95;;;11.50;;
22937;SDS011;11634;42.734;23.298;2022-10-16T05:22:18;14.10;;;10.98;;
22937;SDS011;11634;42.734;23.298;2022-10-16T05:24:44;32.75;;;13.88;;
22937;SDS011;11634;42.734;23.298;2022-10-16T05:27:09;14.98;;;11.15;;
22937;SDS011;11634;42.734;23.298;2022-10-16T05:29:36;16.77;;;10.43;;
22937;SDS011;11634;42.734;23.298;2022-10-16T05:32:02;13.82;;;10.52;;
22937;SDS011;11634;42.734;23.298;2022-10-16T05:34:27;15.00;;;11.38;;
22937;SDS011;11634;42.734;23.298;2022-10-16T05:36:53;16.60;;;11.13;;
22937;SDS011;11634;42.734;23.298;2022-10-16T05:39:18;17.05;;;10.93;;
22937;SDS011;11634;42.734;23.298;2022-10-16T05:41:44;18.98;;;12.85;;
22937;SDS011;11634;42.734;23.298;2022-10-16T05:44:10;17.60;;;12.07;;
22937;SDS011;11634;42.734;23.298;2022-10-16T05:46:35;19.27;;;11.93;;
22937;SDS011;11634;42.734;23.298;2022-10-16T05:49:01;15.15;;;10.90;;
22937;SDS011;11634;42.734;23.298;2022-10-16T05:51:27;16.15;;;11.32;;
22937;SDS011;11634;42.734;23.298;2022-10-16T05:53:53;19.10;;;11.88;;
22937;SDS011;11634;42.734;23.298;2022-10-16T05:56:19;17.45;;;10.90;;
22937;SDS011;11634;42.734;23.298;2022-10-16T05:58:45;12.18;;;8.63;;
22937;SDS011;11634;42.734;23.298;2022-10-16T06:01:14;10.02;;;8.02;;
22937;SDS011;11634;42.734;23.298;2022-10-16T06:03:43;10.60;;;8.13;;
22937;SDS011;11634;42.734;23.298;2022-10-16T06:06:13;10.65;;;8.65;;
22937;SDS011;11634;42.734;23.298;2022-10-16T06:08:43;11.43;;;8.35;;
22937;SDS011;11634;42.734;23.298;2022-10-16T06:11:17;8.43;;;7.45;;
22937;SDS011;11634;42.734;23.298;2022-10-16T06:13:44;12.95;;;8.27;;
22937;SDS011;11634;42.734;23.298;2022-10-16T06:16:11;11.10;;;8.15;;
22937;SDS011;11634;42.734;23.298;2022-10-16T06:18:38;8.88;;;7.30;;
22937;SDS011;11634;42.734;23.298;2022-10-16T06:21:10;10.38;;;7.80;;
22937;SDS011;11634;42.734;23.298;2022-10-16T06:23:41;9.93;;;7.22;;
22937;SDS011;11634;42.734;23.298;2022-10-16T06:26:08;13.02;;;7.50;;
22937;SDS011;11634;42.734;23.298;2022-10-16T06:28:35;9.35;;;7.80;;
22937;SDS011;11634;42.734;23.298;2022-10-16T06:31:01;8.43;;;7.53;;
22937;SDS011;11634;42.734;23.298;2022-10-16T06:33:27;10.77;;;7.88;;
22937;SDS011;11634;42.734;23.298;2022-10-16T06:35:53;12.13;;;8.38;;
22937;SDS011;11634;42.734;23.298;2022-10-16T06:38:19;9.05;;;7.32;;
22937;SDS011;11634;42.734;23.298;2022-10-16T06:40:44;10.90;;;7.75;;
22937;SDS011;11634;42.734;23.298;2022-10-16T06:43:10;12.38;;;7.60;;
22937;SDS011;11634;42.734;23.298;2022-10-16T06:45:35;15.07;;;7.63;;
22937;SDS011;11634;42.734;23.298;2022-10-16T06:48:01;10.20;;;7.00;;
22937;SDS011;11634;42.734;23.298;2022-10-16T06:50:26;10.75;;;7.10;;
22937;SDS011;11634;42.734;23.298;2022-10-16T06:52:52;12.88;;;7.93;;
22937;SDS011;11634;42.734;23.298;2022-10-16T06:55:18;16.15;;;8.40;;
22937;SDS011;11634;42.734;23.298;2022-10-16T06:57:43;9.98;;;7.72;;
22937;SDS011;11634;42.734;23.298;2022-10-16T07:00:12;12.45;;;7.57;;
22937;SDS011;11634;42.734;23.298;2022-10-16T07:02:38;8.23;;;7.25;;
22937;SDS011;11634;42.734;23.298;2022-10-16T07:05:12;11.98;;;8.40;;
22937;SDS011;11634;42.734;23.298;2022-10-16T07:07:37;11.90;;;8.30;;
22937;SDS011;11634;42.734;23.298;2022-10-16T07:10:03;8.90;;;7.55;;
22937;SDS011;11634;42.734;23.298;2022-10-16T07:12:29;12.40;;;8.52;;
22937;SDS011;11634;42.734;23.298;2022-10-16T07:14:55;9.07;;;7.45;;
22937;SDS011;11634;42.734;23.298;2022-10-16T07:17:21;13.75;;;7.82;;
22937;SDS011;11634;42.734;23.298;2022-10-16T07:19:47;9.52;;;7.32;;
22937;SDS011;11634;42.734;23.298;2022-10-16T07:22:12;10.13;;;9.13;;
22937;SDS011;11634;42.734;23.298;2022-10-16T07:24:38;12.07;;;9.52;;
22937;SDS011;11634;42.734;23.298;2022-10-16T07:27:03;13.18;;;10.73;;
22937;SDS011;11634;42.734;23.298;2022-10-16T07:29:29;15.25;;;9.18;;
22937;SDS011;11634;42.734;23.298;2022-10-16T07:31:54;11.85;;;10.63;;
22937;SDS011;11634;42.734;23.298;2022-10-16T07:34:20;12.00;;;10.38;;
22937;SDS011;11634;42.734;23.298;2022-10-16T07:36:49;12.43;;;9.52;;
22937;SDS011;11634;42.734;23.298;2022-10-16T07:39:15;11.05;;;9.55;;
22937;SDS011;11634;42.734;23.298;2022-10-16T07:41:41;11.77;;;10.10;;
22937;SDS011;11634;42.734;23.298;2022-10-16T07:44:07;11.18;;;9.50;;
22937;SDS011;11634;42.734;23.298;2022-10-16T07:46:33;15.65;;;10.05;;
22937;SDS011;11634;42.734;23.298;2022-10-16T07:49:01;12.63;;;10.98;;
22937;SDS011;11634;42.734;23.298;2022-10-16T07:51:27;14.32;;;10.57;;
22937;SDS011;11634;42.734;23.298;2022-10-16T07:53:53;18.58;;;11.10;;
22937;SDS011;11634;42.734;23.298;2022-10-16T07:56:19;13.48;;;11.15;;
22937;SDS011;11634;42.734;23.298;2022-10-16T07:58:46;12.18;;;10.30;;
22937;SDS011;11634;42.734;23.298;2022-10-16T08:01:13;13.65;;;10.85;;
22937;SDS011;11634;42.734;23.298;2022-10-16T08:03:43;14.10;;;11.32;;
22937;SDS011;11634;42.734;23.298;2022-10-16T08:06:12;12.25;;;10.82;;
22937;SDS011;11634;42.734;23.298;2022-10-16T08:08:38;13.57;;;10.40;;
22937;SDS011;11634;42.734;23.298;2022-10-16T08:11:03;14.02;;;9.98;;
22937;SDS011;11634;42.734;23.298;2022-10-16T08:13:29;10.90;;;8.77;;
22937;SDS011;11634;42.734;23.298;2022-10-16T08:15:55;12.93;;;9.10;;
22937;SDS011;11634;42.734;23.298;2022-10-16T08:18:21;10.27;;;8.95;;
22937;SDS011;11634;42.734;23.298;2022-10-16T08:20:47;10.40;;;8.90;;
22937;SDS011;11634;42.734;23.298;2022-10-16T08:23:13;11.30;;;8.57;;
22937;SDS011;11634;42.734;23.298;2022-10-16T08:25:39;12.32;;;7.88;;
22937;SDS011;11634;42.734;23.298;2022-10-16T08:28:06;10.25;;;7.95;;
22937;SDS011;11634;42.734;23.298;2022-10-16T08:30:34;9.02;;;7.15;;
22937;SDS011;11634;42.734;23.298;2022-10-16T08:33:00;14.95;;;8.40;;
22937;SDS011;11634;42.734;23.298;2022-10-16T08:35:26;12.45;;;7.80;;
22937;SDS011;11634;42.734;23.298;2022-10-16T08:37:52;15.38;;;8.57;;
22937;SDS011;11634;42.734;23.298;2022-10-16T08:45:49;8.82;;;6.80;;
22937;SDS011;11634;42.734;23.298;2022-10-16T08:49:05;8.82;;;6.60;;
22937;SDS011;11634;42.734;23.298;2022-10-16T08:51:31;7.65;;;5.10;;
22937;SDS011;11634;42.734;23.298;2022-10-16T08:54:11;9.63;;;6.82;;
22937;SDS011;11634;42.734;23.298;2022-10-16T08:56:56;8.63;;;5.45;;
22937;SDS011;11634;42.734;23.298;2022-10-16T08:59:26;8.45;;;5.40;;
22937;SDS011;11634;42.734;23.298;2022-10-16T09:01:51;5.63;;;5.00;;
22937;SDS011;11634;42.734;23.298;2022-10-16T09:07:09;6.30;;;4.63;;
22937;SDS011;11634;42.734;23.298;2022-10-16T09:20:29;6.40;;;4.70;;
22937;SDS011;11634;42.734;23.298;2022-10-16T09:23:19;8.20;;;4.00;;
22937;SDS011;11634;42.734;23.298;2022-10-16T09:25:51;5.85;;;4.00;;
22937;SDS011;11634;42.734;23.298;2022-10-16T09:28:19;5.72;;;4.10;;
22937;SDS011;11634;42.734;23.298;2022-10-16T09:30:47;5.13;;;3.90;;
22937;SDS011;11634;42.734;23.298;2022-10-16T09:33:17;4.28;;;3.67;;
22937;SDS011;11634;42.734;23.298;2022-10-16T09:35:48;4.85;;;3.72;;
22937;SDS011;11634;42.734;23.298;2022-10-16T09:38:26;6.57;;;4.05;;
22937;SDS011;11634;42.734;23.298;2022-10-16T09:40:54;6.38;;;3.75;;
22937;SDS011;11634;42.734;23.298;2022-10-16T09:46:08;5.50;;;3.72;;
22937;SDS011;11634;42.734;23.298;2022-10-16T09:48:47;4.93;;;3.55;;
22937;SDS011;11634;42.734;23.298;2022-10-16T09:51:18;5.35;;;4.13;;
22937;SDS011;11634;42.734;23.298;2022-10-16T09:56:34;5.53;;;4.00;;
22937;SDS011;11634;42.734;23.298;2022-10-16T09:59:10;9.75;;;4.47;;
22937;SDS011;11634;42.734;23.298;2022-10-16T10:01:37;6.90;;;4.15;;
22937;SDS011;11634;42.734;23.298;2022-10-16T10:04:03;4.93;;;3.72;;
22937;SDS011;11634;42.734;23.298;2022-10-16T10:06:31;6.25;;;3.80;;
22937;SDS011;11634;42.734;23.298;2022-10-16T10:11:58;5.85;;;3.72;;
22937;SDS011;11634;42.734;23.298;2022-10-16T10:19:52;4.57;;;3.28;;
22937;SDS011;11634;42.734;23.298;2022-10-16T10:27:32;6.50;;;3.40;;
22937;SDS011;11634;42.734;23.298;2022-10-16T10:35:39;5.47;;;3.80;;
22937;SDS011;11634;42.734;23.298;2022-10-16T10:46:35;4.95;;;3.55;;
22937;SDS011;11634;42.734;23.298;2022-10-16T10:49:19;4.20;;;3.70;;
22937;SDS011;11634;42.734;23.298;2022-10-16T10:54:54;3.10;;;2.67;;
22937;SDS011;11634;42.734;23.298;2022-10-16T11:06:12;5.65;;;4.13;;
22937;SDS011;11634;42.734;23.298;2022-10-16T11:08:45;6.53;;;3.60;;
22937;SDS011;11634;42.734;23.298;2022-10-16T11:11:26;6.28;;;3.10;;
22937;SDS011;11634;42.734;23.298;2022-10-16T11:16:39;4.32;;;3.28;;
22937;SDS011;11634;42.734;23.298;2022-10-16T11:30:22;5.40;;;3.28;;
22937;SDS011;11634;42.734;23.298;2022-10-16T11:33:00;7.53;;;3.15;;
22937;SDS011;11634;42.734;23.298;2022-10-16T11:35:44;3.60;;;3.30;;
22937;SDS011;11634;42.734;23.298;2022-10-16T11:41:22;5.13;;;3.33;;
22937;SDS011;11634;42.734;23.298;2022-10-16T11:47:01;5.07;;;3.40;;
22937;SDS011;11634;42.734;23.298;2022-10-16T11:49:33;4.22;;;3.50;;
22937;SDS011;11634;42.734;23.298;2022-10-16T11:52:10;4.72;;;3.75;;
22937;SDS011;11634;42.734;23.298;2022-10-16T12:07:36;4.38;;;3.03;;
22937;SDS011;11634;42.734;23.298;2022-10-16T12:09:37;3.63;;;2.88;;
22937;SDS011;11634;42.734;23.298;2022-10-16T12:12:04;6.10;;;2.85;;
22937;SDS011;11634;42.734;23.298;2022-10-16T12:14:58;3.65;;;2.90;;
22937;SDS011;11634;42.734;23.298;2022-10-16T12:17:27;3.10;;;2.70;;
22937;SDS011;11634;42.734;23.298;2022-10-16T12:20:18;6.63;;;3.22;;
22937;SDS011;11634;42.734;23.298;2022-10-16T12:22:59;5.82;;;2.65;;
22937;SDS011;11634;42.734;23.298;2022-10-16T12:25:28;3.20;;;2.85;;
22937;SDS011;11634;42.734;23.298;2022-10-16T12:27:59;3.70;;;2.83;;
22937;SDS011;11634;42.734;23.298;2022-10-16T12:30:35;7.47;;;3.35;;
22937;SDS011;11634;42.734;23.298;2022-10-16T12:35:30;4.53;;;3.65;;
22937;SDS011;11634;42.734;23.298;2022-10-16T12:40:42;5.65;;;3.40;;
22937;SDS011;11634;42.734;23.298;2022-10-16T12:43:26;3.63;;;2.90;;
22937;SDS011;11634;42.734;23.298;2022-10-16T12:48:39;5.70;;;3.40;;
22937;SDS011;11634;42.734;23.298;2022-10-16T12:51:21;3.83;;;2.97;;
22937;SDS011;11634;42.734;23.298;2022-10-16T12:54:02;6.88;;;3.15;;
22937;SDS011;11634;42.734;23.298;2022-10-16T12:59:02;1.77;;;1.58;;
22937;SDS011;11634;42.734;23.298;2022-10-16T13:01:56;1.70;;;1.55;;
22937;SDS011;11634;42.734;23.298;2022-10-16T13:10:01;4.65;;;2.35;;
22937;SDS011;11634;42.734;23.298;2022-10-16T13:15:12;2.97;;;1.85;;
22937;SDS011;11634;42.734;23.298;2022-10-16T13:21:24;2.40;;;1.98;;
22937;SDS011;11634;42.734;23.298;2022-10-16T13:28:48;4.47;;;2.10;;
22937;SDS011;11634;42.734;23.298;2022-10-16T13:31:23;2.38;;;2.05;;
22937;SDS011;11634;42.734;23.298;2022-10-16T13:33:54;3.20;;;2.20;;
22937;SDS011;11634;42.734;23.298;2022-10-16T13:41:35;2.95;;;2.08;;
22937;SDS011;11634;42.734;23.298;2022-10-16T13:44:01;2.80;;;1.92;;
22937;SDS011;11634;42.734;23.298;2022-10-16T13:46:27;2.97;;;1.98;;
22937;SDS011;11634;42.734;23.298;2022-10-16T13:51:24;2.40;;;1.85;;
22937;SDS011;11634;42.734;23.298;2022-10-16T13:53:50;3.55;;;1.90;;
22937;SDS011;11634;42.734;23.298;2022-10-16T13:56:17;4.88;;;1.98;;
22937;SDS011;11634;42.734;23.298;2022-10-16T13:58:44;2.45;;;1.92;;
22937;SDS011;11634;42.734;23.298;2022-10-16T14:01:15;3.40;;;1.92;;
22937;SDS011;11634;42.734;23.298;2022-10-16T14:03:43;4.18;;;2.40;;
22937;SDS011;11634;42.734;23.298;2022-10-16T14:06:14;2.88;;;2.00;;
22937;SDS011;11634;42.734;23.298;2022-10-16T14:08:43;3.17;;;2.50;;
22937;SDS011;11634;42.734;23.298;2022-10-16T14:11:12;3.55;;;2.15;;
22937;SDS011;11634;42.734;23.298;2022-10-16T14:13:39;4.65;;;2.35;;
22937;SDS011;11634;42.734;23.298;2022-10-16T14:16:10;4.80;;;2.47;;
22937;SDS011;11634;42.734;23.298;2022-10-16T14:18:44;4.78;;;2.30;;
22937;SDS011;11634;42.734;23.298;2022-10-16T14:21:14;3.42;;;2.15;;
22937;SDS011;11634;42.734;23.298;2022-10-16T14:23:42;4.25;;;2.22;;
22937;SDS011;11634;42.734;23.298;2022-10-16T14:28:33;3.80;;;2.50;;
22937;SDS011;11634;42.734;23.298;2022-10-16T14:31:01;2.10;;;1.90;;
22937;SDS011;11634;42.734;23.298;2022-10-16T14:33:45;2.75;;;1.88;;
22937;SDS011;11634;42.734;23.298;2022-10-16T14:38:37;4.22;;;2.40;;
22937;SDS011;11634;42.734;23.298;2022-10-16T14:41:05;2.60;;;1.80;;
22937;SDS011;11634;42.734;23.298;2022-10-16T14:43:38;3.05;;;2.40;;
22937;SDS011;11634;42.734;23.298;2022-10-16T14:46:12;2.63;;;2.08;;
22937;SDS011;11634;42.734;23.298;2022-10-16T14:48:41;2.83;;;2.20;;
22937;SDS011;11634;42.734;23.298;2022-10-16T14:51:14;5.00;;;2.13;;
22937;SDS011;11634;42.734;23.298;2022-10-16T14:53:41;1.95;;;1.83;;
22937;SDS011;11634;42.734;23.298;2022-10-16T14:56:20;4.40;;;2.03;;
22937;SDS011;11634;42.734;23.298;2022-10-16T14:58:49;2.88;;;2.28;;
22937;SDS011;11634;42.734;23.298;2022-10-16T15:01:16;3.25;;;2.20;;
22937;SDS011;11634;42.734;23.298;2022-10-16T15:03:43;3.70;;;2.30;;
22937;SDS011;11634;42.734;23.298;2022-10-16T15:06:12;4.28;;;2.55;;
22937;SDS011;11634;42.734;23.298;2022-10-16T15:08:39;3.38;;;2.47;;
22937;SDS011;11634;42.734;23.298;2022-10-16T15:11:07;3.53;;;2.17;;
22937;SDS011;11634;42.734;23.298;2022-10-16T15:13:39;4.10;;;2.25;;
22937;SDS011;11634;42.734;23.298;2022-10-16T15:16:04;3.70;;;2.42;;
22937;SDS011;11634;42.734;23.298;2022-10-16T15:18:36;3.35;;;2.45;;
22937;SDS011;11634;42.734;23.298;2022-10-16T15:21:01;3.95;;;2.53;;
22937;SDS011;11634;42.734;23.298;2022-10-16T15:23:27;2.95;;;2.63;;
22937;SDS011;11634;42.734;23.298;2022-10-16T15:25:53;3.97;;;3.05;;
22937;SDS011;11634;42.734;23.298;2022-10-16T15:28:20;4.93;;;2.78;;
22937;SDS011;11634;42.734;23.298;2022-10-16T15:30:51;4.57;;;2.78;;
22937;SDS011;11634;42.734;23.298;2022-10-16T15:33:18;2.95;;;2.50;;
22937;SDS011;11634;42.734;23.298;2022-10-16T15:35:48;6.57;;;3.03;;
22937;SDS011;11634;42.734;23.298;2022-10-16T15:38:15;3.67;;;2.60;;
22937;SDS011;11634;42.734;23.298;2022-10-16T15:40:42;5.78;;;2.65;;
22937;SDS011;11634;42.734;23.298;2022-10-16T15:43:08;3.00;;;2.70;;
22937;SDS011;11634;42.734;23.298;2022-10-16T15:45:34;4.40;;;2.65;;
22937;SDS011;11634;42.734;23.298;2022-10-16T15:48:00;6.57;;;3.03;;
22937;SDS011;11634;42.734;23.298;2022-10-16T15:50:25;5.13;;;2.90;;
22937;SDS011;11634;42.734;23.298;2022-10-16T15:52:51;4.07;;;2.78;;
22937;SDS011;11634;42.734;23.298;2022-10-16T15:55:20;5.35;;;2.70;;
22937;SDS011;11634;42.734;23.298;2022-10-16T15:57:46;6.03;;;3.35;;
22937;SDS011;11634;42.734;23.298;2022-10-16T16:00:13;5.30;;;3.20;;
22937;SDS011;11634;42.734;23.298;2022-10-16T16:02:41;5.35;;;2.70;;
22937;SDS011;11634;42.734;23.298;2022-10-16T16:05:08;3.13;;;2.60;;
22937;SDS011;11634;42.734;23.298;2022-10-16T16:07:35;3.53;;;2.78;;
22937;SDS011;11634;42.734;23.298;2022-10-16T16:10:03;11.65;;;5.10;;
22937;SDS011;11634;42.734;23.298;2022-10-16T16:12:30;11.32;;;4.32;;
22937;SDS011;11634;42.734;23.298;2022-10-16T16:14:56;5.80;;;3.00;;
22937;SDS011;11634;42.734;23.298;2022-10-16T16:17:21;4.00;;;3.00;;
22937;SDS011;11634;42.734;23.298;2022-10-16T16:19:47;7.18;;;3.10;;
22937;SDS011;11634;42.734;23.298;2022-10-16T16:22:12;3.58;;;2.88;;
22937;SDS011;11634;42.734;23.298;2022-10-16T16:24:38;10.15;;;3.95;;
22937;SDS011;11634;42.734;23.298;2022-10-16T16:27:04;6.68;;;3.80;;
22937;SDS011;11634;42.734;23.298;2022-10-16T16:29:29;6.53;;;4.53;;
22937;SDS011;11634;42.734;23.298;2022-10-16T16:31:55;9.00;;;4.72;;
22937;SDS011;11634;42.734;23.298;2022-10-16T16:34:23;12.95;;;5.82;;
22937;SDS011;11634;42.734;23.298;2022-10-16T16:36:50;9.57;;;5.22;;
22937;SDS011;11634;42.734;23.298;2022-10-16T16:39:18;9.75;;;5.70;;
22937;SDS011;11634;42.734;23.298;2022-10-16T16:41:44;7.07;;;5.18;;
22937;SDS011;11634;42.734;23.298;2022-10-16T16:44:13;6.93;;;4.95;;
22937;SDS011;11634;42.734;23.298;2022-10-16T16:46:39;6.40;;;4.28;;
22937;SDS011;11634;42.734;23.298;2022-10-16T16:49:05;6.32;;;5.05;;
22937;SDS011;11634;42.734;23.298;2022-10-16T16:51:32;6.47;;;4.43;;
22937;SDS011;11634;42.734;23.298;2022-10-16T16:53:58;5.85;;;4.82;;
22937;SDS011;11634;42.734;23.298;2022-10-16T16:56:24;6.68;;;4.47;;
22937;SDS011;11634;42.734;23.298;2022-10-16T16:58:52;7.78;;;4.80;;
22937;SDS011;11634;42.734;23.298;2022-10-16T17:01:23;5.30;;;3.80;;
22937;SDS011;11634;42.734;23.298;2022-10-16T17:03:51;6.15;;;4.10;;